createdAt,value
2023-02-13T00:04:29.422Z,10.57
2023-02-13T00:09:33.507Z,10.90
2023-02-13T00:14:36.779Z,9.48
2023-02-13T00:19:39.884Z,9.38
2023-02-13T00:24:44.062Z,10.23
2023-02-13T00:29:46.874Z,10.05
2023-02-13T00:34:49.674Z,9.38
2023-02-13T00:39:53.973Z,9.50
2023-02-13T00:44:56.759Z,8.90
2023-02-13T00:49:59.517Z,8.85
2023-02-13T00:55:03.636Z,9.88
2023-02-13T01:00:07.667Z,9.15
2023-02-13T01:05:10.534Z,8.75
2023-02-13T01:10:17.472Z,9.07
2023-02-13T01:15:20.566Z,8.57
2023-02-13T01:20:25.148Z,8.77
2023-02-13T01:25:29.598Z,9.85
2023-02-13T01:30:34.075Z,9.13
2023-02-13T01:35:36.819Z,8.63
2023-02-13T01:40:47.521Z,7.85
2023-02-13T01:45:54.055Z,8.20
2023-02-13T01:51:00.864Z,6.88
2023-02-13T01:56:10.795Z,7.85
2023-02-13T02:01:14.035Z,7.78
2023-02-13T02:06:22.775Z,7.95
2023-02-13T02:11:33.895Z,7.20
2023-02-13T02:16:37.147Z,7.85
2023-02-13T02:22:19.740Z,7.13
2023-02-13T02:27:55.664Z,7.00
2023-02-13T02:33:24.740Z,6.28
2023-02-13T02:38:41.945Z,6.57
2023-02-13T02:43:56.510Z,6.45
2023-02-13T02:49:23.858Z,6.65
2023-02-13T02:54:52.008Z,6.35
2023-02-13T03:00:14.595Z,7.03
2023-02-13T03:05:41.675Z,6.47
2023-02-13T03:11:02.208Z,6.90
2023-02-13T03:16:23.353Z,7.43
2023-02-13T03:22:02.438Z,7.55
2023-02-13T03:27:11.618Z,7.22
2023-02-13T03:32:25.005Z,7.88
2023-02-13T03:37:52.649Z,8.38
2023-02-13T03:42:59.442Z,7.38
2023-02-13T03:48:27.173Z,9.07
2023-02-13T03:53:35.905Z,9.73
2023-02-13T03:59:01.613Z,9.95
2023-02-13T04:04:11.080Z,10.52
2023-02-13T04:09:17.053Z,12.38
2023-02-13T04:14:23.366Z,14.70
2023-02-13T04:19:27.650Z,13.73
2023-02-13T04:24:32.069Z,15.70
2023-02-13T04:29:35.020Z,15.05
2023-02-13T04:34:37.882Z,15.70
2023-02-13T04:39:42.058Z,14.05
2023-02-13T04:44:44.872Z,12.27
2023-02-13T04:49:47.729Z,12.40
2023-02-13T04:54:52.122Z,11.52
2023-02-13T04:59:54.910Z,11.25
2023-02-13T05:04:57.760Z,10.02
2023-02-13T05:10:01.982Z,10.23
2023-02-13T05:15:05.254Z,7.82
2023-02-13T05:20:08.946Z,8.13
2023-02-13T05:25:13.177Z,9.00
2023-02-13T05:30:16.608Z,8.88
2023-02-13T05:35:19.727Z,8.20
2023-02-13T05:40:23.823Z,8.93
2023-02-13T05:45:26.596Z,8.70
2023-02-13T05:50:29.411Z,7.95
2023-02-13T05:55:33.685Z,8.77
2023-02-13T06:00:36.409Z,8.23
2023-02-13T06:05:39.135Z,8.35
2023-02-13T06:10:45.162Z,8.25
2023-02-13T06:15:48.248Z,8.48
2023-02-13T06:20:51.178Z,8.80
2023-02-13T06:25:55.299Z,8.05
2023-02-13T06:30:58.454Z,8.20
2023-02-13T06:36:01.771Z,9.35
2023-02-13T06:41:07.011Z,8.45
2023-02-13T06:46:10.071Z,9.55
2023-02-13T06:51:13.015Z,9.73
2023-02-13T06:56:17.171Z,9.45
2023-02-13T07:01:20.151Z,10.07
2023-02-13T07:06:23.021Z,10.10
2023-02-13T07:11:27.194Z,9.52
2023-02-13T07:16:30.094Z,3.38
2023-02-13T07:21:32.913Z,6.85
2023-02-13T07:26:37.075Z,7.43
2023-02-13T07:31:40.341Z,7.57
2023-02-13T07:36:43.099Z,8.68
2023-02-13T07:41:47.215Z,7.63
2023-02-13T07:46:52.304Z,7.63
2023-02-13T07:51:57.526Z,9.07
2023-02-13T07:57:01.663Z,9.88
2023-02-13T08:02:04.431Z,10.10
2023-02-13T08:07:07.202Z,11.50
2023-02-13T08:12:11.563Z,9.25
2023-02-13T08:17:14.511Z,10.95
2023-02-13T08:22:17.320Z,10.20
2023-02-13T08:27:21.785Z,10.90
2023-02-13T08:32:25.136Z,9.60
2023-02-13T08:37:27.887Z,10.38
2023-02-13T08:42:31.915Z,9.38
2023-02-13T08:47:34.635Z,8.70
2023-02-13T08:52:37.302Z,8.73
2023-02-13T08:57:41.444Z,8.48
2023-02-13T09:02:44.213Z,7.07
2023-02-13T09:07:47.072Z,7.60
2023-02-13T09:12:54.915Z,6.63
2023-02-13T09:17:57.675Z,7.72
2023-02-13T09:23:00.409Z,6.95
2023-02-13T09:28:04.560Z,6.55
2023-02-13T09:33:11.949Z,6.70
2023-02-13T09:38:14.734Z,7.03
2023-02-13T09:43:28.144Z,6.72
2023-02-13T09:48:34.489Z,6.82
2023-02-13T09:53:38.322Z,6.93
2023-02-13T09:58:46.953Z,7.45
2023-02-13T10:03:59.699Z,6.53
2023-02-13T10:14:17.674Z,5.88
2023-02-13T10:19:34.193Z,6.85
2023-02-13T10:24:43.040Z,6.30
2023-02-13T10:30:09.547Z,5.53
2023-02-13T10:35:21.905Z,6.55
2023-02-13T10:40:29.955Z,6.05
2023-02-13T10:46:04.257Z,6.28
2023-02-13T10:51:14.093Z,6.47
2023-02-13T10:56:26.175Z,5.85
2023-02-13T11:01:36.827Z,6.03
2023-02-13T11:06:43.987Z,5.93
2023-02-13T11:11:46.947Z,6.65
2023-02-13T11:16:57.897Z,6.00
2023-02-13T11:22:04.686Z,6.90
2023-02-13T11:27:12.850Z,6.63
2023-02-13T11:32:24.140Z,6.07
2023-02-13T11:37:29.911Z,5.95
2023-02-13T11:42:35.641Z,5.70
2023-02-13T11:47:42.216Z,6.03
2023-02-13T11:52:51.640Z,6.35
2023-02-13T11:57:58.606Z,5.95
2023-02-13T12:03:02.836Z,5.57
2023-02-13T12:08:10.191Z,5.22
2023-02-13T12:13:18.100Z,5.47
2023-02-13T12:18:30.984Z,5.80
2023-02-13T12:23:44.406Z,5.38
2023-02-13T12:28:57.725Z,6.38
2023-02-13T12:34:35.094Z,5.63
2023-02-13T12:39:42.196Z,6.40
2023-02-13T12:45:03.500Z,6.32
2023-02-13T12:50:30.860Z,7.00
2023-02-13T12:55:47.168Z,6.07
2023-02-13T13:01:01.031Z,5.20
2023-02-13T13:06:19.520Z,5.60
2023-02-13T13:11:47.922Z,5.22
2023-02-13T13:17:00.028Z,4.70
2023-02-13T13:22:08.549Z,4.95
2023-02-13T13:27:20.171Z,4.80
2023-02-13T13:32:24.059Z,4.83
2023-02-13T13:37:34.864Z,4.80
2023-02-13T13:42:43.211Z,5.95
2023-02-13T13:48:01.486Z,4.55
2023-02-13T13:53:12.149Z,4.60
2023-02-13T13:58:23.409Z,4.10
2023-02-13T14:03:38.967Z,4.32
2023-02-13T14:09:23.631Z,4.68
2023-02-13T14:14:55.134Z,5.03
2023-02-13T14:19:58.254Z,3.85
2023-02-13T14:25:03.683Z,5.88
2023-02-13T14:30:27.862Z,4.93
2023-02-13T14:35:33.649Z,4.43
2023-02-13T14:40:54.497Z,4.50
2023-02-13T14:46:05.121Z,4.53
2023-02-13T14:51:16.090Z,4.50
2023-02-13T14:56:22.533Z,4.93
2023-02-13T15:01:31.749Z,4.82
2023-02-13T15:06:39.454Z,5.28
2023-02-13T15:11:44.191Z,4.18
2023-02-13T15:16:52.498Z,5.15
2023-02-13T15:21:59.083Z,5.10
2023-02-13T15:27:04.341Z,4.53
2023-02-13T15:32:21.089Z,5.72
2023-02-13T15:37:25.948Z,5.68
2023-02-13T15:42:28.738Z,5.40
2023-02-13T15:47:34.553Z,5.53
2023-02-13T15:52:40.049Z,5.05
2023-02-13T15:57:42.890Z,5.35
2023-02-13T16:02:48.756Z,5.38
2023-02-13T16:07:53.049Z,6.38
2023-02-13T16:12:58.707Z,6.20
2023-02-13T16:18:06.238Z,6.22
2023-02-13T16:23:17.656Z,7.13
2023-02-13T16:28:22.913Z,12.32
2023-02-13T16:33:29.889Z,7.43
2023-02-13T16:38:36.444Z,7.03
2023-02-13T16:43:43.079Z,6.97
2023-02-13T16:48:49.652Z,7.47
2023-02-13T16:53:58.012Z,9.15
2023-02-13T16:59:21.743Z,8.35
2023-02-13T17:04:26.526Z,7.35
2023-02-13T17:09:29.828Z,7.25
2023-02-13T17:14:32.536Z,8.10
2023-02-13T17:19:36.698Z,9.20
2023-02-13T17:24:39.499Z,9.32
2023-02-13T17:29:42.280Z,9.38
2023-02-13T17:34:47.321Z,9.13
2023-02-13T17:39:50.580Z,9.20
2023-02-13T17:44:54.382Z,9.43
2023-02-13T17:50:08.552Z,10.43
2023-02-13T17:55:18.463Z,11.82
2023-02-13T18:00:22.339Z,11.25
2023-02-13T18:05:27.661Z,10.85
2023-02-13T18:10:32.972Z,8.63
2023-02-13T18:15:39.558Z,9.55
2023-02-13T18:20:44.170Z,12.70
2023-02-13T18:25:46.857Z,11.20
2023-02-13T18:30:49.713Z,12.82
2023-02-13T18:35:59.622Z,13.18
2023-02-13T18:41:03.679Z,12.77
2023-02-13T18:46:06.483Z,10.93
2023-02-13T18:51:10.672Z,11.73
2023-02-13T18:56:14.216Z,10.77
2023-02-13T19:01:19.474Z,12.30
2023-02-13T19:06:25.116Z,12.13
2023-02-13T19:11:28.664Z,10.18
2023-02-13T19:16:33.021Z,10.60
2023-02-13T19:21:38.973Z,11.70
2023-02-13T19:26:42.005Z,12.25
2023-02-13T19:31:45.350Z,11.45
2023-02-13T19:36:49.528Z,12.45
2023-02-13T19:41:52.232Z,11.02
2023-02-13T19:46:54.979Z,11.80
2023-02-13T19:51:59.098Z,12.85
2023-02-13T19:57:05.562Z,12.80
2023-02-13T20:02:14.414Z,12.32
2023-02-13T20:07:18.492Z,12.80
2023-02-13T20:12:21.248Z,13.52
2023-02-13T20:17:24.025Z,13.13
2023-02-13T20:22:28.127Z,13.52
2023-02-13T20:27:31.157Z,12.68
2023-02-13T20:32:34.121Z,13.15
2023-02-13T20:37:38.284Z,14.43
2023-02-13T20:42:41.046Z,13.38
2023-02-13T20:47:43.803Z,13.85
2023-02-13T20:52:47.884Z,12.93
2023-02-13T20:57:50.660Z,13.15
2023-02-13T21:02:53.431Z,13.60
2023-02-13T21:07:57.667Z,13.23
2023-02-13T21:13:00.368Z,14.27
2023-02-13T21:18:03.844Z,15.88
2023-02-13T21:23:07.909Z,13.93
2023-02-13T21:28:10.644Z,14.93
2023-02-13T21:33:13.371Z,14.65
2023-02-13T21:38:19.048Z,14.60
2023-02-13T21:43:23.126Z,15.63
2023-02-13T21:48:25.813Z,14.65
2023-02-13T21:53:31.997Z,14.00
2023-02-13T21:58:35.086Z,15.25
2023-02-13T22:03:37.813Z,13.90
2023-02-13T22:08:42.027Z,14.65
2023-02-13T22:13:44.727Z,16.02
2023-02-13T22:18:48.835Z,15.50
2023-02-13T22:23:53.042Z,15.85
2023-02-13T22:28:59.659Z,15.20
2023-02-13T22:34:04.411Z,15.00
2023-02-13T22:39:10.828Z,14.38
2023-02-13T22:44:13.538Z,14.48
2023-02-13T22:49:16.213Z,14.70
2023-02-13T22:54:20.218Z,16.35
2023-02-13T22:59:22.943Z,16.73
2023-02-13T23:04:25.792Z,15.88
2023-02-13T23:09:29.994Z,15.23
2023-02-13T23:14:32.830Z,13.95
2023-02-13T23:19:35.667Z,15.00
2023-02-13T23:24:40.252Z,14.93
2023-02-13T23:29:43.057Z,15.20
2023-02-13T23:34:45.848Z,15.35
2023-02-13T23:39:50.080Z,15.05
2023-02-13T23:44:52.947Z,14.18
2023-02-13T23:49:55.688Z,14.75
2023-02-13T23:54:59.857Z,12.85
